createdAt,value
2019-06-26T00:00:11.457Z,51.48
2019-06-26T00:00:44.635Z,51.46
2019-06-26T00:01:17.870Z,51.44
2019-06-26T00:01:50.364Z,51.44
2019-06-26T00:02:22.733Z,51.43
2019-06-26T00:02:55.538Z,51.45
2019-06-26T00:03:28.564Z,51.43
2019-06-26T00:04:01.564Z,51.45
2019-06-26T00:04:34.511Z,51.48
2019-06-26T00:05:07.599Z,51.44
2019-06-26T00:05:39.960Z,51.44
2019-06-26T00:06:12.619Z,51.44
2019-06-26T00:06:45.591Z,51.42
2019-06-26T00:07:18.788Z,51.4
2019-06-26T00:07:51.804Z,51.39
2019-06-26T00:09:06.136Z,51.36
2019-06-26T00:09:38.561Z,51.23
2019-06-26T00:10:11.230Z,51.18
2019-06-26T00:10:45.065Z,51.22
2019-06-26T00:11:18.082Z,51.24
2019-06-26T00:11:50.543Z,51.26
2019-06-26T00:12:23.326Z,51.26
2019-06-26T00:12:55.775Z,51.26
2019-06-26T00:13:28.850Z,51.27
2019-06-26T00:14:01.875Z,51.26
2019-06-26T00:14:37.739Z,51.28
2019-06-26T00:15:11.851Z,51.33
2019-06-26T00:15:44.631Z,51.3
2019-06-26T00:16:17.503Z,51.33
2019-06-26T00:16:50.347Z,51.34
2019-06-26T00:17:23.129Z,51.35
2019-06-26T00:17:55.881Z,51.32
2019-06-26T00:18:28.677Z,51.34
2019-06-26T00:19:01.332Z,51.34
2019-06-26T00:19:33.706Z,51.38
2019-06-26T00:20:06.574Z,51.36
2019-06-26T00:20:40.962Z,51.35
2019-06-26T00:21:13.723Z,51.34
2019-06-26T00:21:47.117Z,51.32
2019-06-26T00:22:19.994Z,51.35
2019-06-26T00:22:53.008Z,51.33
2019-06-26T00:23:25.925Z,51.32
2019-06-26T00:23:58.201Z,51.31
2019-06-26T00:24:30.439Z,51.32
2019-06-26T00:25:03.215Z,51.3
2019-06-26T00:25:36.695Z,51.3
2019-06-26T00:26:09.662Z,51.28
2019-06-26T00:26:41.935Z,51.27
2019-06-26T00:27:14.996Z,51.3
2019-06-26T00:27:47.988Z,51.28
2019-06-26T00:28:20.842Z,51.31
2019-06-26T00:28:53.721Z,51.29
2019-06-26T00:29:26.910Z,51.32
2019-06-26T00:29:59.938Z,51.32
2019-06-26T00:30:34.071Z,51.28
2019-06-26T00:31:07.053Z,51.24
2019-06-26T00:31:40.012Z,51.25
2019-06-26T00:32:12.943Z,51.26
2019-06-26T00:32:45.851Z,51.27
2019-06-26T00:33:18.720Z,51.3
2019-06-26T00:33:51.700Z,51.29
2019-06-26T00:34:24.679Z,51.28
2019-06-26T00:34:57.715Z,51.28
2019-06-26T00:35:30.717Z,51.28
2019-06-26T00:36:03.592Z,51.24
2019-06-26T00:36:36.355Z,51.15
2019-06-26T00:37:09.109Z,51.15
2019-06-26T00:37:41.995Z,51.15
2019-06-26T00:38:14.754Z,51.16
2019-06-26T00:38:46.938Z,51.18
2019-06-26T00:39:19.792Z,51.23
2019-06-26T00:39:52.758Z,51.24
2019-06-26T00:40:25.331Z,51.22
2019-06-26T00:40:57.989Z,51.19
2019-06-26T00:41:30.775Z,51.15
2019-06-26T00:42:03.333Z,51.09
2019-06-26T00:42:35.978Z,51.03
2019-06-26T00:43:08.778Z,51.01
2019-06-26T00:43:43.145Z,51
2019-06-26T00:44:15.938Z,51.02
2019-06-26T00:44:48.917Z,51.02
2019-06-26T00:45:21.767Z,51.04
2019-06-26T00:45:54.045Z,51.05
2019-06-26T00:46:26.899Z,51
2019-06-26T00:46:59.465Z,51.01
2019-06-26T00:47:32.330Z,50.96
2019-06-26T00:48:05.304Z,50.91
2019-06-26T00:48:37.109Z,50.86
2019-06-26T00:49:10.027Z,50.83
2019-06-26T00:49:43.010Z,50.85
2019-06-26T00:50:15.867Z,50.88
2019-06-26T00:50:48.849Z,50.9
2019-06-26T00:51:21.607Z,50.91
2019-06-26T00:51:54.166Z,50.84
2019-06-26T00:52:27.814Z,50.65
2019-06-26T00:53:01.134Z,50.49
2019-06-26T00:53:34.124Z,50.26
2019-06-26T00:54:07.080Z,50.11
2019-06-26T00:54:39.963Z,49.92
2019-06-26T00:55:13.040Z,49.74
2019-06-26T00:55:46.918Z,49.62
2019-06-26T00:56:20.358Z,49.52
2019-06-26T00:56:54.613Z,49.41
2019-06-26T00:57:27.893Z,49.4
2019-06-26T00:58:00.141Z,49.44
2019-06-26T00:58:33.424Z,49.43
2019-06-26T00:59:07.110Z,49.4
2019-06-26T00:59:39.994Z,49.3
2019-06-26T01:00:12.544Z,49.2
2019-06-26T01:00:45.829Z,49.17
2019-06-26T01:01:21.486Z,49.16
2019-06-26T01:01:54.343Z,49.18
2019-06-26T01:02:27.426Z,49.25
2019-06-26T01:03:00.390Z,49.45
2019-06-26T01:03:33.359Z,49.56
2019-06-26T01:04:06.631Z,49.73
2019-06-26T01:04:39.688Z,49.86
2019-06-26T01:05:12.691Z,49.96
2019-06-26T01:05:44.993Z,50.02
2019-06-26T01:06:17.506Z,50.08
2019-06-26T01:06:51.464Z,50.09
2019-06-26T01:07:27.334Z,50.2
2019-06-26T01:07:59.914Z,50.25
2019-06-26T01:08:32.971Z,50.28
2019-06-26T01:09:05.954Z,50.31
2019-06-26T01:09:38.828Z,50.37
2019-06-26T01:10:11.589Z,50.37
2019-06-26T01:10:44.878Z,50.39
2019-06-26T01:11:19.521Z,50.38
2019-06-26T01:11:55.126Z,50.36
2019-06-26T01:12:28.127Z,50.38
2019-06-26T01:13:01.015Z,50.45
2019-06-26T01:13:34.186Z,50.48
2019-06-26T01:14:07.008Z,50.53
2019-06-26T01:14:39.572Z,50.58
2019-06-26T01:15:12.476Z,50.59
2019-06-26T01:15:45.499Z,50.59
2019-06-26T01:16:18.481Z,50.56
2019-06-26T01:16:51.462Z,50.48
2019-06-26T01:17:24.446Z,50.41
2019-06-26T01:17:57.607Z,50.36
2019-06-26T01:18:31.198Z,50.33
2019-06-26T01:19:04.479Z,50.24
2019-06-26T01:19:37.263Z,50.19
2019-06-26T01:20:10.219Z,50.16
2019-06-26T01:20:43.601Z,50.15
2019-06-26T01:21:16.582Z,50.11
2019-06-26T01:21:48.885Z,50.11
2019-06-26T01:22:21.302Z,50.09
2019-06-26T01:22:54.160Z,50.12
2019-06-26T01:23:27.033Z,50.11
2019-06-26T01:23:59.799Z,50.09
2019-06-26T01:24:32.473Z,50.08
2019-06-26T01:25:05.128Z,50.11
2019-06-26T01:25:38.409Z,50.13
2019-06-26T01:26:11.469Z,50.18
2019-06-26T01:26:44.781Z,50.19
2019-06-26T01:27:17.950Z,50.17
2019-06-26T01:27:51.431Z,50.18
2019-06-26T01:28:24.597Z,50.11
2019-06-26T01:28:57.483Z,50.04
2019-06-26T01:29:34.005Z,50
2019-06-26T01:30:07.238Z,49.97
2019-06-26T01:30:41.003Z,49.94
2019-06-26T01:31:13.997Z,49.91
2019-06-26T01:31:46.741Z,49.87
2019-06-26T01:32:19.613Z,49.89
2019-06-26T01:32:52.695Z,49.91
2019-06-26T01:33:25.658Z,49.89
2019-06-26T01:33:58.664Z,49.94
2019-06-26T01:34:31.609Z,49.96
2019-06-26T01:35:04.498Z,50.06
2019-06-26T01:35:37.836Z,50.13
2019-06-26T01:36:10.796Z,50.2
2019-06-26T01:36:43.670Z,50.25
2019-06-26T01:37:16.565Z,50.3
2019-06-26T01:37:49.650Z,50.25
2019-06-26T01:38:22.411Z,50.29
2019-06-26T01:38:55.384Z,50.28
2019-06-26T01:39:27.759Z,50.37
2019-06-26T01:40:00.629Z,50.42
2019-06-26T01:40:34.721Z,50.44
2019-06-26T01:41:07.391Z,50.49
2019-06-26T01:41:40.561Z,50.54
2019-06-26T01:42:13.444Z,50.56
2019-06-26T01:42:45.611Z,50.56
2019-06-26T01:43:18.067Z,50.6
2019-06-26T01:43:51.138Z,50.67
2019-06-26T01:44:23.588Z,50.7
2019-06-26T01:44:56.456Z,50.68
2019-06-26T01:45:29.221Z,50.72
2019-06-26T01:46:02.124Z,50.77
2019-06-26T01:46:35.079Z,50.83
2019-06-26T01:47:07.827Z,50.88
2019-06-26T01:47:40.775Z,50.88
2019-06-26T01:48:13.690Z,50.9
2019-06-26T01:48:46.438Z,50.89
2019-06-26T01:49:19.415Z,50.89
2019-06-26T01:49:52.403Z,50.91
2019-06-26T01:50:25.078Z,50.95
2019-06-26T01:50:57.844Z,50.95
2019-06-26T01:51:30.815Z,50.93
2019-06-26T01:52:03.876Z,50.94
2019-06-26T01:52:36.848Z,50.95
2019-06-26T01:53:10.745Z,50.94
2019-06-26T01:53:43.716Z,50.9
2019-06-26T01:54:16.962Z,50.85
2019-06-26T01:54:49.864Z,50.84
2019-06-26T01:55:22.725Z,50.86
2019-06-26T01:55:55.700Z,50.89
2019-06-26T01:56:28.676Z,50.92
2019-06-26T01:57:01.548Z,50.92
2019-06-26T01:57:34.433Z,50.9
2019-06-26T01:58:07.693Z,50.91
2019-06-26T01:58:40.069Z,50.92
2019-06-26T01:59:12.930Z,50.91
2019-06-26T01:59:45.702Z,50.92
2019-06-26T02:00:19.179Z,50.92
2019-06-26T02:00:52.171Z,50.96
2019-06-26T02:01:25.221Z,50.95
2019-06-26T02:01:57.683Z,50.95
2019-06-26T02:02:30.284Z,50.93
2019-06-26T02:03:02.932Z,50.94
2019-06-26T02:03:35.272Z,50.92
2019-06-26T02:04:08.057Z,50.88
2019-06-26T02:04:41.023Z,50.9
2019-06-26T02:05:13.474Z,50.92
2019-06-26T02:05:46.245Z,50.95
2019-06-26T02:06:18.470Z,50.9
2019-06-26T02:06:51.690Z,50.93
2019-06-26T02:07:24.851Z,50.94
2019-06-26T02:07:56.825Z,50.9
2019-06-26T02:08:29.815Z,50.89
2019-06-26T02:09:02.442Z,50.9
2019-06-26T02:09:36.135Z,50.9
2019-06-26T02:10:09.002Z,50.84
2019-06-26T02:10:42.820Z,50.79
2019-06-26T02:11:15.969Z,50.73
2019-06-26T02:11:49.669Z,50.72
2019-06-26T02:12:22.525Z,50.7
2019-06-26T02:12:55.404Z,50.69
2019-06-26T02:13:28.485Z,50.68
2019-06-26T02:14:01.521Z,50.73
2019-06-26T02:15:15.601Z,50.69
2019-06-26T02:15:48.870Z,50.56
2019-06-26T02:16:21.959Z,50.52
2019-06-26T02:16:55.022Z,50.51
2019-06-26T02:17:27.988Z,50.5
2019-06-26T02:18:00.579Z,50.53
2019-06-26T02:18:33.636Z,50.55
2019-06-26T02:19:07.650Z,50.61
2019-06-26T02:19:40.695Z,50.69
2019-06-26T02:20:13.680Z,50.69
2019-06-26T02:20:46.780Z,50.71
2019-06-26T02:21:20.023Z,50.69
2019-06-26T02:21:52.489Z,50.64
2019-06-26T02:22:25.066Z,50.61
2019-06-26T02:22:57.923Z,50.63
2019-06-26T02:23:30.422Z,50.69
2019-06-26T02:24:02.752Z,50.75
2019-06-26T02:24:35.514Z,50.8
2019-06-26T02:25:08.179Z,50.85
2019-06-26T02:25:40.754Z,50.92
2019-06-26T02:26:13.617Z,50.96
2019-06-26T02:26:45.968Z,50.92
2019-06-26T02:27:19.150Z,50.93
2019-06-26T02:27:52.322Z,50.94
2019-06-26T02:28:25.154Z,50.95
2019-06-26T02:28:57.654Z,50.93
2019-06-26T02:29:30.730Z,50.95
2019-06-26T02:30:03.515Z,51.02
2019-06-26T02:30:36.468Z,51.01
2019-06-26T02:31:09.339Z,51.02
2019-06-26T02:31:42.116Z,51.08
2019-06-26T02:32:15.083Z,51.1
2019-06-26T02:32:47.646Z,51.08
2019-06-26T02:33:20.717Z,51.1
2019-06-26T02:33:53.594Z,51.12
2019-06-26T02:34:26.462Z,51.09
2019-06-26T02:34:59.671Z,51.09
2019-06-26T02:35:32.428Z,51.08
2019-06-26T02:36:05.192Z,51.07
2019-06-26T02:36:37.640Z,51.1
2019-06-26T02:37:10.606Z,51.06
2019-06-26T02:37:43.161Z,51.04
2019-06-26T02:38:16.043Z,51.02
2019-06-26T02:38:49.242Z,51.02
2019-06-26T02:39:21.994Z,50.97
2019-06-26T02:39:54.854Z,50.97
2019-06-26T02:40:27.931Z,50.95
2019-06-26T02:41:00.923Z,50.97
2019-06-26T02:41:33.778Z,51
2019-06-26T02:42:06.968Z,50.98
2019-06-26T02:42:39.935Z,50.97
2019-06-26T02:43:12.900Z,50.94
2019-06-26T02:43:46.073Z,50.9
2019-06-26T02:44:18.861Z,50.91
2019-06-26T02:44:54.767Z,50.9
2019-06-26T02:45:27.892Z,50.9
2019-06-26T02:46:00.934Z,50.87
2019-06-26T02:46:33.514Z,50.88
2019-06-26T02:47:19.101Z,50.84
2019-06-26T02:47:52.860Z,50.8
2019-06-26T02:48:26.345Z,50.67
2019-06-26T02:48:59.122Z,50.64
2019-06-26T02:49:31.814Z,50.69
2019-06-26T02:50:04.753Z,50.66
2019-06-26T02:50:37.930Z,50.68
2019-06-26T02:51:11.407Z,50.72
2019-06-26T02:51:44.567Z,50.72
2019-06-26T02:52:17.290Z,50.63
2019-06-26T02:52:50.228Z,50.56
2019-06-26T02:53:23.164Z,50.59
2019-06-26T02:53:56.084Z,50.58
2019-06-26T02:54:29.780Z,50.59
2019-06-26T02:55:03.568Z,50.63
2019-06-26T02:55:36.025Z,50.63
2019-06-26T02:56:09.001Z,50.64
2019-06-26T02:56:41.345Z,50.64
2019-06-26T02:57:13.920Z,50.68
2019-06-26T02:57:46.685Z,50.66
2019-06-26T02:58:19.699Z,50.63
2019-06-26T02:58:52.416Z,50.54
2019-06-26T02:59:25.264Z,50.48
2019-06-26T02:59:58.178Z,50.41
2019-06-26T03:00:31.133Z,50.37
2019-06-26T03:01:04.101Z,50.29
2019-06-26T03:01:36.268Z,50.19
2019-06-26T03:02:09.440Z,50.16
2019-06-26T03:02:41.697Z,50.1
2019-06-26T03:03:14.868Z,50.08
2019-06-26T03:03:47.746Z,50.08
2019-06-26T03:04:20.932Z,50.04
2019-06-26T03:04:53.888Z,50.01
2019-06-26T03:05:26.660Z,50.06
2019-06-26T03:05:59.426Z,50.08
2019-06-26T03:06:32.499Z,50.07
2019-06-26T03:07:05.594Z,50.12
2019-06-26T03:07:38.473Z,50.07
2019-06-26T03:08:11.437Z,50.1
2019-06-26T03:09:25.340Z,50.09
2019-06-26T03:09:58.473Z,50
2019-06-26T03:10:31.091Z,49.99
2019-06-26T03:11:04.071Z,50.05
2019-06-26T03:11:37.199Z,50.08
2019-06-26T03:12:10.234Z,50.07
2019-06-26T03:12:43.292Z,50.05
2019-06-26T03:13:16.375Z,50.05
2019-06-26T03:13:49.455Z,50.07
2019-06-26T03:14:22.315Z,50.13
2019-06-26T03:15:08.618Z,50.16
2019-06-26T03:15:43.173Z,50.24
2019-06-26T03:16:22.631Z,50.21
2019-06-26T03:16:55.394Z,50.13
2019-06-26T03:17:29.087Z,50.11
2019-06-26T03:18:01.980Z,50.13
2019-06-26T03:18:35.049Z,50.07
2019-06-26T03:19:08.004Z,50.03
2019-06-26T03:19:40.874Z,50.08
2019-06-26T03:20:13.748Z,50.12
2019-06-26T03:20:49.893Z,50.21
2019-06-26T03:21:25.417Z,50.24
2019-06-26T03:21:58.188Z,50.25
2019-06-26T03:22:31.168Z,50.27
2019-06-26T03:23:04.042Z,50.3
2019-06-26T03:23:36.806Z,50.3
2019-06-26T03:24:09.693Z,50.33
2019-06-26T03:24:42.654Z,50.36
2019-06-26T03:25:15.630Z,50.42
2019-06-26T03:25:48.497Z,50.47
2019-06-26T03:26:21.560Z,50.52
2019-06-26T03:26:55.469Z,50.55
2019-06-26T03:27:28.152Z,50.51
2019-06-26T03:28:00.879Z,50.54
2019-06-26T03:28:33.261Z,50.47
2019-06-26T03:29:06.638Z,50.44
2019-06-26T03:29:39.224Z,50.42
2019-06-26T03:30:12.175Z,50.43
2019-06-26T03:30:45.559Z,50.38
2019-06-26T03:31:17.811Z,50.32
2019-06-26T03:31:50.274Z,50.31
2019-06-26T03:32:22.837Z,50.32
2019-06-26T03:32:55.597Z,50.33
2019-06-26T03:33:28.576Z,50.33
2019-06-26T03:34:01.695Z,50.31
2019-06-26T03:34:34.529Z,50.32
2019-06-26T03:35:07.403Z,50.32
2019-06-26T03:35:41.179Z,50.31
2019-06-26T03:36:14.357Z,50.3
2019-06-26T03:36:47.261Z,50.26
2019-06-26T03:37:20.403Z,50.3
2019-06-26T03:37:52.870Z,50.32
2019-06-26T03:38:25.635Z,50.35
2019-06-26T03:38:58.100Z,50.44
2019-06-26T03:39:30.979Z,50.45
2019-06-26T03:40:03.778Z,50.44
2019-06-26T03:40:37.004Z,50.42
2019-06-26T03:41:09.802Z,50.38
2019-06-26T03:42:24.041Z,50.33
2019-06-26T03:42:56.999Z,50.21
2019-06-26T03:43:29.462Z,50.18
2019-06-26T03:44:02.546Z,50.18
2019-06-26T03:44:35.414Z,50.22
2019-06-26T03:45:24.907Z,50.29
2019-06-26T03:45:55.848Z,50.36
2019-06-26T03:46:28.517Z,50.29
2019-06-26T03:47:01.027Z,50.27
2019-06-26T03:47:33.918Z,50.29
2019-06-26T03:48:06.466Z,50.28
2019-06-26T03:48:39.330Z,50.29
2019-06-26T03:49:12.394Z,50.32
2019-06-26T03:49:45.328Z,50.42
2019-06-26T03:50:18.238Z,50.45
2019-06-26T03:50:51.214Z,50.48
2019-06-26T03:51:24.107Z,50.53
2019-06-26T03:51:57.165Z,50.6
2019-06-26T03:52:30.004Z,50.6
2019-06-26T03:53:02.917Z,50.56
2019-06-26T03:53:35.363Z,50.52
2019-06-26T03:54:08.230Z,50.53
2019-06-26T03:54:42.249Z,50.53
2019-06-26T03:55:15.093Z,50.52
2019-06-26T03:55:47.962Z,50.53
2019-06-26T03:56:20.851Z,50.54
2019-06-26T03:56:53.817Z,50.57
2019-06-26T03:57:26.320Z,50.62
2019-06-26T03:57:58.749Z,50.62
2019-06-26T03:58:31.697Z,50.62
2019-06-26T03:59:45.917Z,50.58
2019-06-26T04:00:18.910Z,50.45
2019-06-26T04:00:55.976Z,50.42
2019-06-26T04:01:28.928Z,50.42
2019-06-26T04:02:02.158Z,50.44
2019-06-26T04:02:35.225Z,50.43
2019-06-26T04:03:48.966Z,50.47
2019-06-26T04:04:22.017Z,50.33
2019-06-26T04:04:54.995Z,50.28
2019-06-26T04:05:27.277Z,50.26
2019-06-26T04:06:00.121Z,50.27
2019-06-26T04:06:32.882Z,50.34
2019-06-26T04:07:05.878Z,50.4
2019-06-26T04:07:38.724Z,50.44
2019-06-26T04:08:11.501Z,50.45
2019-06-26T04:08:44.391Z,50.49
2019-06-26T04:09:17.237Z,50.49
2019-06-26T04:09:49.717Z,50.52
2019-06-26T04:10:22.583Z,50.54
2019-06-26T04:10:55.538Z,50.53
2019-06-26T04:11:28.524Z,50.51
2019-06-26T04:12:01.493Z,50.49
2019-06-26T04:12:35.189Z,50.45
2019-06-26T04:13:07.547Z,50.34
2019-06-26T04:13:40.544Z,50.26
2019-06-26T04:14:13.493Z,50.23
2019-06-26T04:14:46.141Z,50.15
2019-06-26T04:15:19.019Z,50.11
2019-06-26T04:15:51.902Z,50.04
2019-06-26T04:16:24.965Z,49.99
2019-06-26T04:16:58.033Z,49.96
2019-06-26T04:17:31.113Z,49.95
2019-06-26T04:18:03.995Z,49.97
2019-06-26T04:18:36.442Z,49.97
2019-06-26T04:19:09.321Z,49.99
2019-06-26T04:19:42.185Z,49.99
2019-06-26T04:20:15.153Z,50.03
2019-06-26T04:20:47.865Z,50.06
2019-06-26T04:21:21.104Z,50.09
2019-06-26T04:21:53.783Z,50.08
2019-06-26T04:22:26.657Z,50.1
2019-06-26T04:22:59.505Z,50.15
2019-06-26T04:23:32.612Z,50.17
2019-06-26T04:24:05.351Z,50.22
2019-06-26T04:24:38.649Z,50.24
2019-06-26T04:25:11.709Z,50.24
2019-06-26T04:25:44.066Z,50.23
2019-06-26T04:26:16.946Z,50.29
2019-06-26T04:26:50.112Z,50.3
2019-06-26T04:27:22.878Z,50.29
2019-06-26T04:27:55.755Z,50.3
2019-06-26T04:28:28.724Z,50.3
2019-06-26T04:29:01.932Z,50.31
2019-06-26T04:29:34.366Z,50.3
2019-06-26T04:30:06.484Z,50.32
2019-06-26T04:30:39.804Z,50.34
2019-06-26T04:31:12.890Z,50.32
2019-06-26T04:31:45.959Z,50.33
2019-06-26T04:32:19.025Z,50.37
2019-06-26T04:32:51.485Z,50.4
2019-06-26T04:33:24.357Z,50.47
2019-06-26T04:33:57.028Z,50.49
2019-06-26T04:34:30.033Z,50.53
2019-06-26T04:35:03.125Z,50.53
2019-06-26T04:35:36.568Z,50.49
2019-06-26T04:36:09.420Z,50.46
2019-06-26T04:36:43.012Z,50.46
2019-06-26T04:37:15.478Z,50.46
2019-06-26T04:37:48.348Z,50.49
2019-06-26T04:38:20.552Z,50.46
2019-06-26T04:38:53.372Z,50.49
2019-06-26T04:39:26.245Z,50.5
2019-06-26T04:39:59.116Z,50.49
2019-06-26T04:40:32.193Z,50.48
2019-06-26T04:41:05.154Z,50.48
2019-06-26T04:41:38.123Z,50.49
2019-06-26T04:42:11.101Z,50.45
2019-06-26T04:42:44.080Z,50.44
2019-06-26T04:43:17.049Z,50.42
2019-06-26T04:43:50.121Z,50.43
2019-06-26T04:44:22.904Z,50.42
2019-06-26T04:44:55.571Z,50.4
2019-06-26T04:45:28.376Z,50.4
2019-06-26T04:46:01.201Z,50.45
2019-06-26T04:46:33.644Z,50.44
2019-06-26T04:47:06.514Z,50.42
2019-06-26T04:47:39.287Z,50.38
2019-06-26T04:48:12.269Z,50.37
2019-06-26T04:48:45.029Z,50.37
2019-06-26T04:49:17.903Z,50.35
2019-06-26T04:49:51.198Z,50.35
2019-06-26T04:50:27.731Z,50.3
2019-06-26T04:51:00.724Z,50.23
2019-06-26T04:51:33.909Z,50.17
2019-06-26T04:52:06.558Z,50.15
2019-06-26T04:52:39.153Z,50.14
2019-06-26T04:53:12.513Z,50.13
2019-06-26T04:53:45.479Z,50.12
2019-06-26T04:54:18.763Z,50.11
2019-06-26T04:54:51.724Z,50.11
2019-06-26T04:55:25.409Z,50.08
2019-06-26T04:55:58.489Z,50.04
2019-06-26T04:56:31.078Z,50.02
2019-06-26T04:57:03.946Z,49.99
2019-06-26T04:57:37.001Z,50
2019-06-26T04:58:09.761Z,49.97
2019-06-26T04:58:42.749Z,49.96
2019-06-26T04:59:15.918Z,49.92
2019-06-26T04:59:48.891Z,49.87
2019-06-26T05:00:22.276Z,49.84
2019-06-26T05:00:55.663Z,49.83
2019-06-26T05:01:28.126Z,49.77
2019-06-26T05:02:01.466Z,49.72
2019-06-26T05:02:34.273Z,49.65
2019-06-26T05:03:06.935Z,49.56
2019-06-26T05:03:39.808Z,49.46
2019-06-26T05:04:12.988Z,49.34
2019-06-26T05:04:45.954Z,49.26
2019-06-26T05:05:18.929Z,49.15
2019-06-26T05:05:50.936Z,49.06
2019-06-26T05:06:23.444Z,49
2019-06-26T05:06:57.240Z,48.91
2019-06-26T05:07:33.090Z,48.87
2019-06-26T05:08:06.174Z,48.81
2019-06-26T05:08:39.228Z,48.76
2019-06-26T05:09:12.113Z,48.81
2019-06-26T05:09:44.875Z,48.84
2019-06-26T05:10:17.733Z,48.9
2019-06-26T05:10:51.215Z,48.89
2019-06-26T05:11:23.783Z,48.93
2019-06-26T05:11:56.762Z,48.98
2019-06-26T05:12:29.536Z,49.01
2019-06-26T05:13:02.407Z,49.05
2019-06-26T05:13:35.080Z,49.1
2019-06-26T05:14:07.613Z,49.15
2019-06-26T05:14:40.599Z,49.17
2019-06-26T05:15:13.661Z,49.15
2019-06-26T05:15:46.747Z,49.13
2019-06-26T05:16:20.934Z,49.12
2019-06-26T05:16:53.895Z,49.13
2019-06-26T05:17:26.788Z,49.12
2019-06-26T05:17:59.927Z,49.11
2019-06-26T05:18:32.867Z,49.13
2019-06-26T05:19:06.838Z,49.11
2019-06-26T05:19:39.705Z,49.13
2019-06-26T05:20:12.585Z,49.19
2019-06-26T05:20:46.067Z,49.19
2019-06-26T05:21:20.055Z,49.1
2019-06-26T05:21:52.704Z,49
2019-06-26T05:22:26.101Z,48.93
2019-06-26T05:22:58.940Z,48.89
2019-06-26T05:23:31.953Z,48.94
2019-06-26T05:24:05.036Z,48.97
2019-06-26T05:24:38.116Z,49.03
2019-06-26T05:25:11.067Z,49.09
2019-06-26T05:25:43.741Z,49.15
2019-06-26T05:26:16.191Z,49.18
2019-06-26T05:26:49.068Z,49.22
2019-06-26T05:27:22.146Z,49.16
2019-06-26T05:27:55.210Z,49.15
2019-06-26T05:28:28.195Z,49.18
2019-06-26T05:29:01.279Z,49.19
2019-06-26T05:29:34.156Z,49.21
2019-06-26T05:30:06.997Z,49.27
2019-06-26T05:30:41.406Z,49.3
2019-06-26T05:31:14.180Z,49.26
2019-06-26T05:31:47.365Z,49.27
2019-06-26T05:32:20.343Z,49.27
2019-06-26T05:32:53.194Z,49.28
2019-06-26T05:33:26.184Z,49.28
2019-06-26T05:33:58.958Z,49.27
2019-06-26T05:34:32.124Z,49.25
2019-06-26T05:35:05.338Z,49.22
2019-06-26T05:35:39.086Z,49.17
2019-06-26T05:36:11.857Z,49.12
2019-06-26T05:36:45.162Z,49.05
2019-06-26T05:37:18.113Z,49.05
2019-06-26T05:37:51.212Z,48.99
2019-06-26T05:38:24.162Z,48.94
2019-06-26T05:38:57.236Z,48.9
2019-06-26T05:39:30.051Z,48.79
2019-06-26T05:40:04.320Z,48.74
2019-06-26T05:40:52.725Z,48.67
2019-06-26T05:41:32.603Z,48.53
2019-06-26T05:42:07.106Z,48.42
2019-06-26T05:42:40.482Z,48.41
2019-06-26T05:43:15.974Z,48.43
2019-06-26T05:43:52.728Z,48.4
2019-06-26T05:44:25.954Z,48.35
2019-06-26T05:44:59.080Z,48.3
2019-06-26T05:45:32.271Z,48.27
2019-06-26T05:46:05.428Z,48.26
2019-06-26T05:46:38.974Z,48.28
2019-06-26T05:47:14.056Z,48.2
2019-06-26T05:47:47.441Z,48.16
2019-06-26T05:48:20.714Z,48.12
2019-06-26T05:48:54.781Z,48.15
2019-06-26T05:49:35.210Z,48.16
2019-06-26T05:50:14.663Z,48.16
2019-06-26T05:50:52.468Z,48.06
2019-06-26T05:51:25.961Z,48.02
2019-06-26T05:52:03.059Z,47.99
2019-06-26T05:52:36.866Z,47.98
2019-06-26T05:53:15.874Z,47.98
2019-06-26T05:53:49.053Z,47.97
2019-06-26T05:54:26.213Z,47.9
2019-06-26T05:54:58.776Z,47.86
2019-06-26T05:55:32.584Z,47.9
2019-06-26T05:56:10.547Z,47.93
2019-06-26T05:56:45.749Z,47.91
2019-06-26T05:57:18.546Z,47.97
2019-06-26T05:57:55.553Z,48
2019-06-26T05:58:32.242Z,48.08
2019-06-26T05:59:05.465Z,48.1
2019-06-26T05:59:37.976Z,48.06
2019-06-26T06:00:11.412Z,48.05
2019-06-26T06:00:44.310Z,48.09
2019-06-26T06:01:18.482Z,48.11
2019-06-26T06:01:52.770Z,48.14
2019-06-26T06:02:27.986Z,48.14
2019-06-26T06:03:00.429Z,48.12
2019-06-26T06:03:33.224Z,48.15
2019-06-26T06:04:05.587Z,48.19
2019-06-26T06:04:38.897Z,48.25
2019-06-26T06:05:12.838Z,48.32
2019-06-26T06:05:45.238Z,48.38
2019-06-26T06:06:18.384Z,48.44
2019-06-26T06:06:51.452Z,48.45
2019-06-26T06:07:37.531Z,48.5
2019-06-26T06:08:10.441Z,48.54
2019-06-26T06:08:43.624Z,48.52
2019-06-26T06:09:19.249Z,48.51
2019-06-26T06:09:52.611Z,48.54
2019-06-26T06:10:25.601Z,48.51
2019-06-26T06:10:58.830Z,48.54
2019-06-26T06:11:31.605Z,48.57
2019-06-26T06:12:03.865Z,48.63
2019-06-26T06:12:36.475Z,48.68
2019-06-26T06:13:09.547Z,48.71
2019-06-26T06:13:42.912Z,48.72
2019-06-26T06:14:15.893Z,48.76
2019-06-26T06:14:49.168Z,48.77
2019-06-26T06:15:22.523Z,48.8
2019-06-26T06:15:55.525Z,48.86
2019-06-26T06:16:28.408Z,48.82
2019-06-26T06:17:02.330Z,48.87
2019-06-26T06:17:34.756Z,48.87
2019-06-26T06:18:08.006Z,48.94
2019-06-26T06:18:40.601Z,48.9
2019-06-26T06:19:13.747Z,48.88
2019-06-26T06:19:46.345Z,48.89
2019-06-26T06:20:19.200Z,48.86
2019-06-26T06:20:58.885Z,48.86
2019-06-26T06:21:32.275Z,48.83
2019-06-26T06:22:05.296Z,48.83
2019-06-26T06:22:37.969Z,48.78
2019-06-26T06:23:10.857Z,48.76
2019-06-26T06:23:44.216Z,48.81
2019-06-26T06:24:17.192Z,48.81
2019-06-26T06:24:50.222Z,48.84
2019-06-26T06:25:23.346Z,48.85
2019-06-26T06:25:56.302Z,48.86
2019-06-26T06:26:29.442Z,48.85
2019-06-26T06:27:02.667Z,48.84
2019-06-26T06:27:35.336Z,48.86
2019-06-26T06:28:08.192Z,48.8
2019-06-26T06:28:41.180Z,48.78
2019-06-26T06:29:14.052Z,48.81
2019-06-26T06:29:46.503Z,48.79
2019-06-26T06:30:18.966Z,48.82
2019-06-26T06:30:51.627Z,48.84
2019-06-26T06:31:24.305Z,48.85
2019-06-26T06:31:57.164Z,48.86
2019-06-26T06:32:29.640Z,48.89
2019-06-26T06:33:48.644Z,48.92
2019-06-26T06:34:21.658Z,48.75
2019-06-26T06:34:54.633Z,48.68
2019-06-26T06:35:27.304Z,48.67
2019-06-26T06:36:00.063Z,48.68
2019-06-26T06:36:33.234Z,48.68
2019-06-26T06:37:06.109Z,48.77
2019-06-26T06:37:39.083Z,48.77
2019-06-26T06:38:12.054Z,48.79
2019-06-26T06:38:45.037Z,48.77
2019-06-26T06:39:18.041Z,48.78
2019-06-26T06:39:51.079Z,48.75
2019-06-26T06:40:23.644Z,48.76
2019-06-26T06:40:56.153Z,48.81
2019-06-26T06:41:28.760Z,48.78
2019-06-26T06:42:01.789Z,48.78
2019-06-26T06:42:35.133Z,48.8
2019-06-26T06:43:07.579Z,48.78
2019-06-26T06:43:40.308Z,48.81
2019-06-26T06:44:13.414Z,48.79
2019-06-26T06:44:47.065Z,48.78
2019-06-26T06:45:20.228Z,48.76
2019-06-26T06:45:53.435Z,48.75
2019-06-26T06:46:27.868Z,48.69
2019-06-26T06:47:07.924Z,48.68
2019-06-26T06:47:42.030Z,48.59
2019-06-26T06:48:17.719Z,48.54
2019-06-26T06:48:50.516Z,48.47
2019-06-26T06:49:23.415Z,48.43
2019-06-26T06:49:56.578Z,48.45
2019-06-26T06:50:29.334Z,48.49
2019-06-26T06:51:02.195Z,48.51
2019-06-26T06:52:17.184Z,48.56
2019-06-26T06:52:50.128Z,48.45
2019-06-26T06:53:22.999Z,48.35
2019-06-26T06:53:56.194Z,48.32
2019-06-26T06:54:28.845Z,48.35
2019-06-26T06:55:01.891Z,48.35
2019-06-26T06:55:35.911Z,48.35
2019-06-26T06:56:49.926Z,48.33
2019-06-26T06:57:24.155Z,48.22
2019-06-26T06:57:57.234Z,48.22
2019-06-26T06:58:30.803Z,48.22
2019-06-26T06:59:04.328Z,48.2
2019-06-26T06:59:37.169Z,48.19
2019-06-26T07:00:10.928Z,48.22
2019-06-26T07:00:44.102Z,48.2
2019-06-26T07:01:16.642Z,48.22
2019-06-26T07:01:49.876Z,48.23
2019-06-26T07:02:23.714Z,48.25
2019-06-26T07:02:56.864Z,48.23
2019-06-26T07:03:29.835Z,48.17
2019-06-26T07:04:02.784Z,48.18
2019-06-26T07:04:35.661Z,48.22
2019-06-26T07:05:15.897Z,48.22
2019-06-26T07:05:55.897Z,48.2
2019-06-26T07:06:28.705Z,48
2019-06-26T07:07:01.747Z,47.98
2019-06-26T07:07:34.573Z,47.97
2019-06-26T07:08:08.762Z,48
2019-06-26T07:08:41.594Z,47.97
2019-06-26T07:09:15.050Z,48.01
2019-06-26T07:09:48.500Z,48.07
2019-06-26T07:10:20.861Z,48.07
2019-06-26T07:10:54.107Z,48.08
2019-06-26T07:11:27.777Z,48.07
2019-06-26T07:12:02.509Z,48.03
2019-06-26T07:12:37.210Z,48
2019-06-26T07:13:12.024Z,47.88
2019-06-26T07:13:45.257Z,47.74
2019-06-26T07:14:18.383Z,47.67
2019-06-26T07:14:50.931Z,47.65
2019-06-26T07:15:23.916Z,47.64
2019-06-26T07:15:57.126Z,47.66
2019-06-26T07:16:30.298Z,47.59